Time;durP1;ratioP1;P1;durP2;ratioP2;P2;SDS_P1;SDS_P2;PMS_P1;PMS_P2;Temp;Humidity;BMP_temperature;BMP_pressure;BME280_temperature;BME280_humidity;BME280_pressure;Samples;Min_cycle;Max_cycle;Signal;HPM_P1;HPM_P2
2024/01/17 00:00:49;;;;;;;15.15;6.93;;;-3273.70;97.60;;;;;;4997013;28;20129;-70
2024/01/17 00:03:14;;;;;;;17.10;8.00;;;-3273.70;97.50;;;;;;4997431;28;20045;-69
2024/01/17 00:05:40;;;;;;;12.50;7.32;;;-3273.70;97.60;;;;;;5001362;28;20092;-69
2024/01/17 00:08:05;;;;;;;15.10;7.18;;;-3273.70;97.50;;;;;;4996819;28;20061;-68
2024/01/17 00:10:31;;;;;;;12.13;7.22;;;-3273.70;97.60;;;;;;4997417;28;20037;-69
2024/01/17 00:12:56;;;;;;;12.80;6.78;;;-3273.70;97.40;;;;;;4995059;28;20441;-68
2024/01/17 00:15:22;;;;;;;16.75;7.55;;;-3273.80;97.30;;;;;;4998688;28;20124;-68
2024/01/17 00:17:48;;;;;;;12.52;7.45;;;-3273.70;97.30;;;;;;4999462;28;20419;-69
2024/01/17 00:20:14;;;;;;;16.27;7.40;;;-3273.60;97.20;;;;;;5001928;28;20038;-69
2024/01/17 00:22:39;;;;;;;17.20;7.82;;;-3273.60;97.20;;;;;;4996481;28;20042;-70
2024/01/17 00:25:08;;;;;;;12.77;7.10;;;-3273.60;97.20;;;;;;4991669;28;20355;-68
2024/01/17 00:27:35;;;;;;;11.90;6.90;;;-3273.60;97.30;;;;;;4997295;28;20164;-69
2024/01/17 00:30:01;;;;;;;15.02;7.40;;;-3273.60;97.30;;;;;;4994776;28;20033;-69
2024/01/17 00:32:26;;;;;;;16.00;7.85;;;-3273.70;97.40;;;;;;4997211;28;20383;-69
2024/01/17 00:34:52;;;;;;;19.88;7.95;;;-3273.80;97.30;;;;;;4983092;28;20030;-69
2024/01/17 00:37:18;;;;;;;14.77;7.13;;;-3273.80;97.10;;;;;;4993763;28;20463;-68
2024/01/17 00:39:44;;;;;;;16.92;7.22;;;-3273.90;97.20;;;;;;5002575;28;20092;-68
2024/01/17 00:42:09;;;;;;;17.65;8.23;;;-3273.90;97.10;;;;;;4995260;28;20029;-68
2024/01/17 00:44:38;;;;;;;12.90;7.55;;;-3274.00;97.10;;;;;;5001914;28;20059;-70
2024/01/17 00:47:04;;;;;;;11.50;6.63;;;-3274.00;97.00;;;;;;5002567;28;20331;-68
2024/01/17 00:49:29;;;;;;;9.27;5.97;;;-3274.00;96.80;;;;;;5000597;28;20045;-70
2024/01/17 00:51:55;;;;;;;18.00;7.38;;;-3274.10;96.60;;;;;;4984748;28;20030;-69
2024/01/17 00:54:20;;;;;;;14.27;7.43;;;-3274.10;96.50;;;;;;5005012;28;20045;-69
2024/01/17 00:56:46;;;;;;;12.32;7.40;;;-3274.10;96.50;;;;;;4996896;28;20034;-69
2024/01/17 00:59:11;;;;;;;13.13;7.65;;;-3274.10;96.60;;;;;;4996787;28;20103;-68
2024/01/17 01:01:37;;;;;;;12.63;7.05;;;-3274.20;96.70;;;;;;4999999;28;20042;-69
2024/01/17 01:04:02;;;;;;;13.82;6.95;;;-3274.20;96.70;;;;;;5003037;28;20489;-69
2024/01/17 01:06:28;;;;;;;15.02;7.07;;;-3274.10;96.50;;;;;;5002011;28;20034;-68
2024/01/17 01:08:54;;;;;;;14.60;8.25;;;-3274.20;96.40;;;;;;4999465;28;20030;-69
2024/01/17 01:11:19;;;;;;;18.40;8.20;;;-3274.20;96.30;;;;;;4997970;28;20156;-68
2024/01/17 01:13:44;;;;;;;14.45;7.38;;;-3274.20;96.40;;;;;;5000169;28;20090;-70
2024/01/17 01:16:10;;;;;;;14.20;7.03;;;-3274.20;96.30;;;;;;4992472;28;20118;-69
2024/01/17 01:18:36;;;;;;;23.42;8.32;;;-3274.30;95.90;;;;;;5000615;28;20195;-69
2024/01/17 01:21:02;;;;;;;15.77;6.45;;;-3274.30;96.00;;;;;;4997655;28;20085;-69
2024/01/17 01:23:27;;;;;;;12.82;6.57;;;-3274.30;96.00;;;;;;5004601;28;20196;-69
2024/01/17 01:25:53;;;;;;;15.75;7.85;;;-3274.30;96.10;;;;;;4999934;28;20026;-69
2024/01/17 01:28:19;;;;;;;12.05;7.15;;;-3274.30;95.90;;;;;;4980437;28;20038;-68
2024/01/17 01:30:44;;;;;;;10.38;6.93;;;-3274.30;95.90;;;;;;4975587;28;20447;-70
2024/01/17 01:33:09;;;;;;;14.52;7.13;;;-3274.20;95.90;;;;;;5002237;28;20042;-68
2024/01/17 01:35:35;;;;;;;9.07;6.22;;;-3274.20;96.00;;;;;;5003978;28;20057;-69
2024/01/17 01:38:00;;;;;;;16.10;6.82;;;-3274.20;96.00;;;;;;5002779;28;20054;-69
2024/01/17 01:40:26;;;;;;;17.13;7.85;;;-3274.10;95.90;;;;;;4981649;28;20120;-68
2024/01/17 01:42:53;;;;;;;11.80;7.03;;;-3274.10;96.10;;;;;;5001445;28;20053;-69
2024/01/17 01:45:18;;;;;;;14.15;6.95;;;-3274.00;96.00;;;;;;4998754;28;20188;-69
2024/01/17 01:47:44;;;;;;;12.93;6.97;;;-3273.90;96.10;;;;;;4985460;28;20224;-69
2024/01/17 01:50:11;;;;;;;13.27;7.07;;;-3274.00;96.20;;;;;;5005591;28;20563;-70
2024/01/17 01:52:39;;;;;;;12.00;6.93;;;-3273.90;96.10;;;;;;5002366;28;20053;-69
2024/01/17 01:55:05;;;;;;;13.00;7.05;;;-3274.00;96.10;;;;;;4998258;28;20089;-69
2024/01/17 01:57:32;;;;;;;14.38;7.43;;;-3273.90;96.10;;;;;;4996455;28;20038;-69
2024/01/17 02:00:00;;;;;;;13.23;7.18;;;-3273.80;96.20;;;;;;4997146;28;20370;-69
2024/01/17 02:02:25;;;;;;;11.45;5.53;;;-3273.80;96.40;;;;;;5002753;28;20120;-69
2024/01/17 02:04:52;;;;;;;14.07;6.32;;;-3273.80;96.50;;;;;;5003569;28;20084;-69
2024/01/17 02:07:21;;;;;;;12.32;5.88;;;-3273.80;96.40;;;;;;4997068;28;20046;-69
2024/01/17 02:09:48;;;;;;;11.85;6.38;;;-3273.80;96.40;;;;;;5001531;28;20092;-68
2024/01/17 02:12:13;;;;;;;13.95;7.25;;;-3273.80;96.40;;;;;;5002109;28;20078;-69
2024/01/17 02:14:40;;;;;;;14.48;6.22;;;-3273.70;96.30;;;;;;5001074;28;20126;-68
2024/01/17 02:17:07;;;;;;;10.98;6.35;;;-3273.70;96.40;;;;;;4999466;28;20034;-69
2024/01/17 02:19:32;;;;;;;11.90;6.30;;;-3273.60;96.40;;;;;;4998341;28;20117;-69
2024/01/17 02:21:58;;;;;;;11.32;6.05;;;-3273.60;96.50;;;;;;4999769;28;20462;-69
2024/01/17 02:24:23;;;;;;;11.07;6.47;;;-3273.60;96.40;;;;;;4997934;28;20070;-69
2024/01/17 02:26:49;;;;;;;14.20;7.22;;;-3273.70;96.40;;;;;;5002744;28;20027;-69
2024/01/17 02:29:15;;;;;;;13.18;6.40;;;-3273.60;96.40;;;;;;4997476;28;20042;-71
2024/01/17 02:31:41;;;;;;;13.25;6.38;;;-3273.60;96.30;;;;;;5000345;28;20129;-68
2024/01/17 02:34:07;;;;;;;12.25;6.75;;;-3273.60;96.40;;;;;;4999799;28;20042;-69
2024/01/17 02:36:32;;;;;;;12.27;6.72;;;-3273.50;96.50;;;;;;4999521;28;20368;-70
2024/01/17 02:38:58;;;;;;;13.02;6.35;;;-3273.50;96.40;;;;;;4981714;28;20030;-68
2024/01/17 02:41:23;;;;;;;11.43;5.95;;;-3273.50;96.50;;;;;;5002116;28;20431;-69
2024/01/17 02:43:49;;;;;;;13.07;6.07;;;-3273.50;96.70;;;;;;4994053;28;20129;-70
2024/01/17 02:46:14;;;;;;;12.48;6.35;;;-3273.50;96.50;;;;;;4998466;28;20153;-69
2024/01/17 02:48:40;;;;;;;9.25;5.43;;;-3273.50;96.40;;;;;;4992600;28;20026;-69
2024/01/17 02:51:05;;;;;;;13.55;6.28;;;-3273.50;96.50;;;;;;5004379;28;20061;-69
2024/01/17 02:53:31;;;;;;;13.65;6.07;;;-3273.50;96.60;;;;;;4998832;28;20137;-68
2024/01/17 02:55:56;;;;;;;10.68;5.82;;;-3273.50;96.70;;;;;;4995813;28;20025;-69
2024/01/17 02:58:22;;;;;;;11.52;6.38;;;-3273.50;96.70;;;;;;5000158;28;20140;-68
2024/01/17 03:00:47;;;;;;;10.50;6.45;;;-3273.50;96.80;;;;;;4998061;28;20335;-69
2024/01/17 03:03:13;;;;;;;9.55;5.95;;;-3273.50;96.80;;;;;;4999150;28;20105;-69
2024/01/17 03:06:05;;;;;;;10.90;5.93;;;-3273.50;96.80;;;;;;5000854;28;20875;-71
2024/01/17 03:08:30;;;;;;;12.43;6.13;;;-3273.50;96.80;;;;;;4993995;28;20042;-70
2024/01/17 03:10:56;;;;;;;11.13;5.53;;;-3273.50;96.70;;;;;;4993473;28;20041;-68
2024/01/17 03:13:21;;;;;;;13.52;6.82;;;-3273.50;96.60;;;;;;4999171;28;20064;-69
2024/01/17 03:15:47;;;;;;;9.93;5.43;;;-3273.50;96.60;;;;;;5003211;28;20057;-69
2024/01/17 03:18:13;;;;;;;11.60;6.80;;;-3273.50;96.70;;;;;;5004679;28;20236;-68
2024/01/17 03:20:42;;;;;;;10.52;5.85;;;-3273.50;96.60;;;;;;5003233;28;22377;-70
2024/01/17 03:23:07;;;;;;;11.82;5.63;;;-3273.50;96.60;;;;;;4990297;28;20111;-69
2024/01/17 03:25:33;;;;;;;9.75;4.82;;;-3273.50;96.50;;;;;;4999556;28;20029;-68
2024/01/17 03:28:05;;;;;;;13.20;6.28;;;-3273.50;96.40;;;;;;5075892;27;20770;-69
2024/01/17 03:30:32;;;;;;;12.10;5.93;;;-3273.50;96.40;;;;;;5057548;28;20036;-70
2024/01/17 03:32:58;;;;;;;9.75;5.53;;;-3273.50;96.50;;;;;;5061145;28;20024;-69
2024/01/17 03:35:23;;;;;;;12.57;6.13;;;-3273.50;96.60;;;;;;5056467;28;20029;-69
2024/01/17 03:37:49;;;;;;;9.63;5.75;;;-3273.30;96.40;;;;;;5058364;28;20024;-71
2024/01/17 03:40:14;;;;;;;11.30;5.85;;;-3273.30;96.50;;;;;;5052098;28;20028;-69
2024/01/17 03:42:40;;;;;;;10.95;5.65;;;-3273.30;96.70;;;;;;5060897;28;20110;-70
2024/01/17 03:45:05;;;;;;;12.23;5.50;;;-3273.30;96.50;;;;;;5048728;28;20036;-70
2024/01/17 03:47:31;;;;;;;12.30;6.72;;;-3273.30;96.60;;;;;;5060350;28;20127;-69
2024/01/17 03:49:57;;;;;;;9.73;4.95;;;-3273.20;96.70;;;;;;5041192;28;20397;-71
2024/01/17 03:52:23;;;;;;;11.13;5.13;;;-3273.20;96.70;;;;;;5036923;28;20037;-70
2024/01/17 03:54:48;;;;;;;14.77;5.22;;;-3273.30;96.80;;;;;;5031833;28;20037;-69
2024/01/17 03:57:15;;;;;;;13.15;5.20;;;-3273.30;96.80;;;;;;5040755;28;20127;-70
2024/01/17 03:59:44;;;;;;;16.73;5.88;;;-3273.30;96.80;;;;;;5033186;28;20022;-69
2024/01/17 04:02:09;;;;;;;10.60;5.78;;;-3273.30;96.70;;;;;;5040795;28;20452;-69
2024/01/17 04:04:35;;;;;;;10.68;5.85;;;-3273.30;96.90;;;;;;5036635;28;20034;-71
2024/01/17 04:07:00;;;;;;;13.00;5.15;;;-3273.30;96.80;;;;;;5040862;28;20072;-70
2024/01/17 04:09:26;;;;;;;10.95;5.07;;;-3273.40;96.80;;;;;;5040461;28;20116;-69
2024/01/17 04:11:52;;;;;;;11.02;5.47;;;-3273.50;96.80;;;;;;5040387;28;20041;-70
2024/01/17 04:14:17;;;;;;;15.25;5.57;;;-3273.50;96.70;;;;;;5037465;28;20033;-72
2024/01/17 04:16:43;;;;;;;8.98;4.93;;;-3273.60;96.70;;;;;;5038596;28;20166;-70
2024/01/17 04:19:09;;;;;;;9.60;4.78;;;-3273.60;96.70;;;;;;5041483;28;20036;-70
2024/01/17 04:21:35;;;;;;;7.38;4.07;;;-3273.70;96.60;;;;;;5040784;28;20115;-69
2024/01/17 04:24:00;;;;;;;9.63;4.65;;;-3273.70;96.50;;;;;;5039865;28;20037;-69
2024/01/17 04:26:26;;;;;;;9.82;5.10;;;-3273.70;96.50;;;;;;5039237;28;20067;-70
2024/01/17 04:28:53;;;;;;;12.98;6.30;;;-3273.70;96.40;;;;;;5037974;28;20063;-70
2024/01/17 04:31:36;;;;;;;9.80;4.70;;;-3273.70;96.40;;;;;;5037857;28;20387;-69
2024/01/17 04:34:02;;;;;;;9.15;4.95;;;-3273.70;96.40;;;;;;5035354;28;20041;-69
2024/01/17 04:36:29;;;;;;;10.27;5.00;;;-3273.70;96.40;;;;;;5033592;28;20068;-70
2024/01/17 04:38:55;;;;;;;10.88;3.95;;;-3273.80;96.30;;;;;;5025641;28;20052;-72
2024/01/17 04:41:21;;;;;;;11.20;5.80;;;-3273.80;96.10;;;;;;5024136;28;20117;-70
2024/01/17 04:43:47;;;;;;;8.07;4.68;;;-3273.80;96.10;;;;;;5029392;28;20419;-71
2024/01/17 04:46:14;;;;;;;8.20;3.97;;;-3273.80;96.10;;;;;;5023945;28;20176;-70
2024/01/17 04:48:43;;;;;;;9.77;5.18;;;-3273.80;96.00;;;;;;5019085;28;20026;-72
2024/01/17 04:51:10;;;;;;;8.38;4.65;;;-3273.80;96.00;;;;;;5015587;28;20112;-70
2024/01/17 04:53:41;;;;;;;9.57;4.78;;;-3273.80;96.00;;;;;;5022627;28;20030;-70
2024/01/17 04:56:08;;;;;;;7.97;4.30;;;-3273.80;96.10;;;;;;5015092;28;20103;-70
2024/01/17 04:58:33;;;;;;;8.02;4.43;;;-3273.80;95.90;;;;;;5025864;28;20087;-70
2024/01/17 05:01:02;;;;;;;8.45;4.50;;;-3273.80;96.00;;;;;;5025278;28;20434;-71
2024/01/17 05:03:27;;;;;;;9.73;4.95;;;-3273.70;96.00;;;;;;5021470;28;20339;-70
2024/01/17 05:05:54;;;;;;;6.95;4.00;;;-3273.80;96.10;;;;;;5019161;28;20034;-70
2024/01/17 05:08:19;;;;;;;9.93;4.63;;;-3273.80;96.10;;;;;;5022376;28;20434;-71
2024/01/17 05:10:45;;;;;;;8.35;4.03;;;-3273.80;96.10;;;;;;5024023;28;20048;-71
2024/01/17 05:13:12;;;;;;;8.18;5.05;;;-3273.90;96.10;;;;;;5026214;28;22269;-70
2024/01/17 05:15:38;;;;;;;11.18;4.85;;;-3273.90;96.10;;;;;;5021046;28;20428;-70
2024/01/17 05:18:07;;;;;;;10.07;3.75;;;-3273.90;96.00;;;;;;5020009;28;20045;-70
2024/01/17 05:20:33;;;;;;;8.40;4.28;;;-3273.90;96.10;;;;;;5026843;28;20021;-70
2024/01/17 05:22:59;;;;;;;10.43;4.43;;;-3273.90;96.00;;;;;;5022595;28;20121;-70
2024/01/17 05:25:25;;;;;;;7.43;4.07;;;-3273.90;95.90;;;;;;5027045;28;20065;-70
2024/01/17 05:27:52;;;;;;;8.05;3.28;;;-3273.90;96.00;;;;;;5027393;28;20113;-70
2024/01/17 05:30:26;;;;;;;7.90;4.43;;;-3273.90;95.80;;;;;;5038457;28;20036;-70
2024/01/17 05:32:53;;;;;;;12.48;4.07;;;-3273.90;95.90;;;;;;5022616;28;20426;-70
2024/01/17 05:35:20;;;;;;;8.80;3.80;;;-3273.90;95.80;;;;;;5029168;28;20110;-71
2024/01/17 05:37:46;;;;;;;8.48;3.97;;;-3273.90;95.80;;;;;;5024964;28;20412;-69
2024/01/17 05:40:12;;;;;;;8.23;3.05;;;-3273.90;95.80;;;;;;5025094;28;20099;-70
2024/01/17 05:42:39;;;;;;;6.47;3.92;;;-3273.90;95.70;;;;;;5024457;28;20094;-70
2024/01/17 05:45:06;;;;;;;9.00;4.45;;;-3274.00;95.70;;;;;;5024393;28;20108;-70
2024/01/17 05:47:32;;;;;;;9.05;4.40;;;-3273.90;95.60;;;;;;5026215;28;20425;-71
2024/01/17 05:49:57;;;;;;;7.80;3.88;;;-3274.00;95.60;;;;;;5026821;28;20045;-71
2024/01/17 05:52:23;;;;;;;12.23;4.65;;;-3274.00;95.40;;;;;;5025723;28;20345;-71
2024/01/17 05:54:49;;;;;;;8.50;3.50;;;-3274.00;95.50;;;;;;5027768;28;20442;-70
2024/01/17 05:57:14;;;;;;;8.60;4.35;;;-3274.00;95.30;;;;;;5027066;28;20238;-70
2024/01/17 05:59:40;;;;;;;7.85;3.42;;;-3274.00;95.30;;;;;;5022759;28;20056;-70
2024/01/17 06:02:06;;;;;;;7.28;3.53;;;-3273.90;95.40;;;;;;5027454;28;20036;-71
2024/01/17 06:04:33;;;;;;;10.35;4.28;;;-3274.00;95.50;;;;;;5026122;28;20111;-70
2024/01/17 06:06:58;;;;;;;7.97;4.15;;;-3273.90;95.60;;;;;;5023216;28;20114;-71
2024/01/17 06:09:24;;;;;;;7.05;3.20;;;-3273.90;95.50;;;;;;5024125;28;20109;-70
2024/01/17 06:11:49;;;;;;;6.93;3.30;;;-3273.90;95.40;;;;;;5026218;28;20118;-71
2024/01/17 06:14:15;;;;;;;11.88;3.67;;;-3273.90;95.30;;;;;;5026306;28;20164;-71
2024/01/17 06:16:40;;;;;;;7.05;3.30;;;-3273.90;95.40;;;;;;5018256;28;20044;-70
2024/01/17 06:19:06;;;;;;;7.13;3.35;;;-3273.80;95.40;;;;;;5023777;28;20127;-71
2024/01/17 06:21:31;;;;;;;7.75;3.50;;;-3273.80;95.30;;;;;;5023756;28;20492;-70
2024/01/17 06:23:57;;;;;;;6.20;3.45;;;-3273.80;95.20;;;;;;5020569;28;20117;-70
2024/01/17 06:26:23;;;;;;;6.75;3.35;;;-3273.70;95.30;;;;;;5017516;28;20120;-70
2024/01/17 06:28:48;;;;;;;8.15;3.30;;;-3273.70;95.40;;;;;;5021419;28;20104;-71
2024/01/17 06:31:25;;;;;;;7.93;3.30;;;-3273.70;95.20;;;;;;5016600;28;20112;-71
2024/01/17 06:33:51;;;;;;;12.30;4.45;;;-3273.70;95.50;;;;;;5021187;28;20049;-70
2024/01/17 06:36:16;;;;;;;7.28;3.38;;;-3273.60;95.40;;;;;;5022154;28;20033;-70
2024/01/17 06:38:42;;;;;;;14.30;4.22;;;-3273.60;95.20;;;;;;5018444;28;20040;-70
2024/01/17 06:41:07;;;;;;;6.50;2.78;;;-3273.60;95.20;;;;;;5014674;28;20041;-70
2024/01/17 06:43:33;;;;;;;6.80;2.95;;;-3273.60;95.30;;;;;;5024922;28;20032;-70
2024/01/17 06:45:58;;;;;;;5.95;2.95;;;-3273.60;95.40;;;;;;5017136;28;20069;-70
2024/01/17 06:48:24;;;;;;;7.35;3.05;;;-3273.60;95.30;;;;;;5022902;28;20022;-70
2024/01/17 06:50:49;;;;;;;7.60;3.80;;;-3273.60;95.20;;;;;;5023582;28;20037;-71
2024/01/17 06:53:17;;;;;;;8.70;3.60;;;-3273.60;95.30;;;;;;5014321;28;20053;-70
2024/01/17 06:55:43;;;;;;;7.00;3.05;;;-3273.50;95.20;;;;;;5017499;28;20025;-70
2024/01/17 06:58:09;;;;;;;6.80;3.45;;;-3273.60;95.40;;;;;;5023941;28;20036;-70
2024/01/17 07:00:35;;;;;;;7.40;3.50;;;-3273.60;95.30;;;;;;5018447;28;20091;-71
2024/01/17 07:03:00;;;;;;;5.47;2.85;;;-3273.60;95.20;;;;;;5020663;28;20120;-70
2024/01/17 07:05:26;;;;;;;8.98;3.08;;;-3273.60;95.10;;;;;;5025969;28;20026;-71
2024/01/17 07:07:51;;;;;;;8.40;3.22;;;-3273.60;95.30;;;;;;5018508;28;20121;-70
2024/01/17 07:10:17;;;;;;;5.20;2.55;;;-3273.60;95.20;;;;;;5019742;28;20045;-70
2024/01/17 07:12:42;;;;;;;5.20;2.63;;;-3273.60;95.00;;;;;;5024815;28;20032;-71
2024/01/17 07:15:08;;;;;;;9.25;2.60;;;-3273.60;94.80;;;;;;5018664;28;20032;-70
2024/01/17 07:17:33;;;;;;;7.65;3.30;;;-3273.70;94.70;;;;;;5016679;28;21036;-70
2024/01/17 07:19:59;;;;;;;6.95;2.80;;;-3273.70;94.80;;;;;;5022494;28;20120;-73
2024/01/17 07:22:24;;;;;;;5.82;3.17;;;-3273.70;94.50;;;;;;5020629;28;20064;-71
2024/01/17 07:24:50;;;;;;;6.40;2.83;;;-3273.80;94.60;;;;;;5024214;28;20065;-72
2024/01/17 07:27:15;;;;;;;7.15;3.13;;;-3273.80;94.50;;;;;;5026417;28;20115;-70
2024/01/17 07:29:41;;;;;;;7.22;2.63;;;-3273.70;94.60;;;;;;5015944;28;20053;-72
2024/01/17 07:32:06;;;;;;;5.65;3.08;;;-3273.80;94.60;;;;;;5020484;28;20109;-70
2024/01/17 07:34:32;;;;;;;7.65;2.58;;;-3273.80;94.30;;;;;;5022956;28;20038;-70
2024/01/17 07:36:58;;;;;;;5.82;2.35;;;-3273.80;94.30;;;;;;5023149;28;20037;-70
2024/01/17 07:39:23;;;;;;;6.20;2.78;;;-3273.90;94.10;;;;;;5022368;28;20176;-70
2024/01/17 07:41:49;;;;;;;4.88;2.70;;;-3273.90;94.30;;;;;;5023318;28;20025;-69
2024/01/17 07:44:14;;;;;;;4.00;2.20;;;-3273.90;94.00;;;;;;5038161;28;20049;-75
2024/01/17 07:46:40;;;;;;;4.18;2.30;;;-3274.00;94.00;;;;;;5025468;28;20551;-73
2024/01/17 07:49:06;;;;;;;7.05;2.75;;;-3273.90;93.80;;;;;;5021467;28;20049;-73
2024/01/17 07:51:31;;;;;;;5.15;2.60;;;-3274.00;93.90;;;;;;5017074;28;20057;-74
2024/01/17 07:53:57;;;;;;;6.18;2.88;;;-3274.00;93.80;;;;;;5033745;28;20038;-74
2024/01/17 07:56:23;;;;;;;6.38;2.85;;;-3274.00;93.80;;;;;;5015044;28;20038;-74
2024/01/17 07:58:50;;;;;;;7.63;2.75;;;-3274.10;93.60;;;;;;5014297;28;20512;-74
2024/01/17 08:01:15;;;;;;;6.10;2.33;;;-3274.10;93.40;;;;;;5020659;28;20120;-75
2024/01/17 08:03:41;;;;;;;5.03;2.45;;;-3274.20;93.20;;;;;;5018230;28;20033;-74
2024/01/17 08:06:07;;;;;;;4.78;2.47;;;-3274.20;93.20;;;;;;5024324;28;20049;-74
2024/01/17 08:08:32;;;;;;;9.18;3.63;;;-3274.20;93.10;;;;;;5027118;28;20116;-74
2024/01/17 08:10:58;;;;;;;7.50;3.33;;;-3274.30;92.90;;;;;;5019545;28;20121;-75
2024/01/17 08:13:23;;;;;;;5.35;2.47;;;-3274.30;92.90;;;;;;5021201;28;20033;-74
2024/01/17 08:15:49;;;;;;;6.88;3.13;;;-3274.30;93.10;;;;;;5021219;28;20104;-75
2024/01/17 08:18:14;;;;;;;6.28;2.60;;;-3274.30;93.30;;;;;;5028840;28;20083;-75
2024/01/17 08:20:40;;;;;;;6.32;2.75;;;-3274.30;92.80;;;;;;5026193;28;20032;-74
2024/01/17 08:23:05;;;;;;;8.40;3.00;;;-3274.30;92.90;;;;;;5032183;28;20048;-74
2024/01/17 08:25:31;;;;;;;5.20;2.58;;;-3274.40;93.00;;;;;;5026009;28;20061;-75
2024/01/17 08:27:59;;;;;;;4.30;2.35;;;-3274.40;93.00;;;;;;5026611;28;20069;-75
2024/01/17 08:30:24;;;;;;;6.93;3.10;;;-3274.40;92.90;;;;;;5027732;28;20100;-75
2024/01/17 08:32:53;;;;;;;6.50;2.97;;;-3274.40;92.90;;;;;;5022358;28;20029;-75
2024/01/17 08:35:21;;;;;;;4.15;2.20;;;-3274.40;93.00;;;;;;5024995;28;20308;-75
2024/01/17 08:37:47;;;;;;;5.30;2.50;;;-3274.40;92.40;;;;;;5025899;28;20313;-75
2024/01/17 08:40:12;;;;;;;5.15;2.10;;;-3274.40;92.00;;;;;;5022245;28;20373;-75
2024/01/17 08:42:39;;;;;;;4.40;2.28;;;-3274.50;92.30;;;;;;5023932;28;20116;-74
2024/01/17 08:45:06;;;;;;;6.18;2.45;;;-3274.50;92.40;;;;;;5026674;28;20033;-74
2024/01/17 08:47:31;;;;;;;5.55;2.63;;;-3274.50;92.50;;;;;;5021461;28;20057;-74
2024/01/17 08:50:00;;;;;;;8.27;2.70;;;-3274.50;92.00;;;;;;5028858;28;20078;-75
2024/01/17 08:52:26;;;;;;;5.70;2.65;;;-3274.50;91.90;;;;;;5023285;28;20029;-75
2024/01/17 08:54:51;;;;;;;4.43;2.47;;;-3274.50;92.10;;;;;;5019704;28;20128;-74
2024/01/17 08:57:17;;;;;;;6.25;2.63;;;-3274.60;91.70;;;;;;5026567;28;20433;-75
2024/01/17 08:59:42;;;;;;;4.95;2.08;;;-3274.50;91.80;;;;;;5026590;28;20375;-74
2024/01/17 09:02:08;;;;;;;5.93;2.63;;;-3274.60;91.40;;;;;;5025177;28;20037;-74
2024/01/17 09:04:33;;;;;;;3.92;2.00;;;-3274.60;91.80;;;;;;5016814;28;20129;-74
2024/01/17 09:06:59;;;;;;;4.28;2.08;;;-3274.60;91.30;;;;;;5013322;28;20356;-75
2024/01/17 09:09:27;;;;;;;3.95;2.10;;;-3274.70;91.90;;;;;;5024898;28;20044;-74
2024/01/17 09:11:53;;;;;;;4.97;2.00;;;-3274.70;91.40;;;;;;5025747;28;20087;-74
2024/01/17 09:14:21;;;;;;;5.47;2.10;;;-3274.70;91.50;;;;;;5019342;28;20456;-75
2024/01/17 09:16:49;;;;;;;7.68;3.03;;;-3274.80;91.70;;;;;;5024688;28;20044;-74
2024/01/17 09:19:14;;;;;;;4.45;2.45;;;-3274.80;91.40;;;;;;5021142;28;20176;-74
2024/01/17 09:21:40;;;;;;;4.47;1.95;;;-3274.80;91.20;;;;;;5025850;28;20108;-74
2024/01/17 09:24:05;;;;;;;5.55;2.58;;;-3274.70;90.80;;;;;;5027071;28;20041;-74
2024/01/17 09:26:31;;;;;;;4.20;1.95;;;-3274.90;91.20;;;;;;5034109;28;20132;-75
2024/01/17 09:28:56;;;;;;;6.18;2.38;;;-3274.90;91.00;;;;;;5024849;28;20192;-75
2024/01/17 09:31:22;;;;;;;7.65;2.33;;;-3274.90;90.40;;;;;;5026635;28;20034;-74
2024/01/17 09:33:47;;;;;;;3.70;2.50;;;-3275.00;90.80;;;;;;5027108;28;20132;-74
2024/01/17 09:36:13;;;;;;;5.20;2.05;;;-3275.00;91.20;;;;;;5027138;28;20433;-74
2024/01/17 09:38:38;;;;;;;3.38;2.08;;;-3275.00;90.80;;;;;;5027662;28;20418;-74
2024/01/17 09:41:04;;;;;;;4.68;2.28;;;-3275.00;91.10;;;;;;5024719;28;20125;-74
2024/01/17 09:43:30;;;;;;;5.90;2.60;;;-3275.00;90.90;;;;;;5025357;28;20039;-74
2024/01/17 09:46:00;;;;;;;6.15;2.50;;;-3275.00;90.90;;;;;;5023276;28;20100;-74
2024/01/17 09:48:26;;;;;;;3.75;2.28;;;-3275.10;91.30;;;;;;5024020;28;20029;-74
2024/01/17 09:50:51;;;;;;;6.47;2.45;;;-3275.10;90.90;;;;;;5016861;28;20087;-75
2024/01/17 09:53:25;;;;;;;3.78;1.85;;;-3275.20;90.50;;;;;;5023780;28;20152;-74
2024/01/17 09:55:53;;;;;;;6.43;2.90;;;-3275.20;90.60;;;;;;5036836;28;20021;-74
2024/01/17 09:58:19;;;;;;;5.60;2.35;;;-3275.20;90.60;;;;;;5024670;28;20480;-74
2024/01/17 10:00:48;;;;;;;5.20;2.28;;;-3275.20;90.10;;;;;;5021571;28;20063;-74
2024/01/17 10:03:20;;;;;;;4.10;2.15;;;-3275.30;90.50;;;;;;5025808;28;20373;-74
2024/01/17 10:05:50;;;;;;;4.93;2.20;;;-3275.30;90.20;;;;;;5020331;28;20029;-73
2024/01/17 10:08:18;;;;;;;4.47;2.10;;;-3275.30;90.70;;;;;;5024625;28;20462;-75
2024/01/17 10:10:44;;;;;;;7.28;2.15;;;-3275.30;90.50;;;;;;5021964;28;20029;-74
2024/01/17 10:13:11;;;;;;;4.07;2.20;;;-3275.30;90.10;;;;;;5022617;28;20036;-73
2024/01/17 10:15:42;;;;;;;5.47;2.47;;;-3275.30;90.30;;;;;;5025314;28;20104;-73
2024/01/17 10:18:10;;;;;;;6.03;2.65;;;-3275.30;89.80;;;;;;5023780;28;20551;-73
2024/01/17 10:20:36;;;;;;;4.82;2.28;;;-3275.40;90.00;;;;;;5024860;28;20517;-73
2024/01/17 10:23:03;;;;;;;5.05;2.13;;;-3275.50;89.40;;;;;;5026979;28;20053;-72
2024/01/17 10:25:37;;;;;;;3.30;2.13;;;-3275.60;89.50;;;;;;5021172;28;20040;-72
2024/01/17 10:28:02;;;;;;;5.00;2.17;;;-3275.60;89.70;;;;;;5002999;28;20498;-72
2024/01/17 10:30:28;;;;;;;4.88;2.67;;;-3275.60;89.40;;;;;;5001362;28;20046;-72
2024/01/17 10:32:54;;;;;;;5.25;2.47;;;-3275.70;89.30;;;;;;5004278;28;20469;-72
2024/01/17 10:35:23;;;;;;;4.53;2.38;;;-3275.70;88.70;;;;;;5008899;28;20057;-72
2024/01/17 10:37:52;;;;;;;7.57;2.45;;;-3275.70;88.10;;;;;;5005888;28;20058;-73
2024/01/17 10:40:18;;;;;;;6.88;2.10;;;-3275.80;88.70;;;;;;5004069;28;20207;-72
2024/01/17 10:42:44;;;;;;;6.07;2.75;;;-3275.90;88.70;;;;;;5006046;28;20030;-72
2024/01/17 10:45:20;;;;;;;6.40;2.70;;;-3275.90;88.00;;;;;;5007223;28;20048;-72
2024/01/17 10:47:46;;;;;;;4.75;2.47;;;-3276.10;88.20;;;;;;5006010;28;20049;-72
2024/01/17 10:50:17;;;;;;;3.60;2.08;;;-3276.20;87.80;;;;;;5006428;28;20205;-72
2024/01/17 10:52:45;;;;;;;5.60;2.65;;;-3276.30;88.00;;;;;;5008955;28;20453;-72
2024/01/17 10:55:13;;;;;;;8.05;2.53;;;-3276.10;86.30;;;;;;5005116;28;20053;-72
2024/01/17 10:57:44;;;;;;;5.60;2.53;;;-3276.40;87.60;;;;;;5006482;28;20074;-72
2024/01/17 11:00:16;;;;;;;4.57;2.67;;;0.00;87.90;;;;;;5004619;28;20019;-72
2024/01/17 11:02:43;;;;;;;5.38;2.60;;;0.00;86.80;;;;;;5003172;28;20379;-72
2024/01/17 11:05:11;;;;;;;4.88;2.10;;;0.00;86.30;;;;;;5006639;28;20045;-72
2024/01/17 11:07:37;;;;;;;4.75;2.88;;;-3276.70;85.70;;;;;;5002751;28;20034;-72
2024/01/17 11:10:05;;;;;;;5.97;2.55;;;0.00;85.80;;;;;;4998118;28;20033;-72
2024/01/17 11:12:32;;;;;;;10.40;3.33;;;0.00;85.40;;;;;;5002287;28;20443;-72
2024/01/17 11:15:00;;;;;;;6.10;2.35;;;-3276.70;84.30;;;;;;4997064;28;20038;-72
2024/01/17 11:17:29;;;;;;;7.82;2.85;;;-3276.70;85.50;;;;;;5004312;28;20072;-72
2024/01/17 11:19:55;;;;;;;5.20;2.63;;;-3276.70;85.70;;;;;;5007060;28;20029;-72
2024/01/17 11:22:21;;;;;;;6.18;3.08;;;-3276.60;84.50;;;;;;5006722;28;20057;-72
2024/01/17 11:25:06;;;;;;;5.68;2.63;;;-3276.60;84.40;;;;;;5010300;28;20029;-72
2024/01/17 11:27:54;;;;;;;6.65;2.83;;;0.00;85.50;;;;;;5020221;28;20053;-69
2024/01/17 11:30:20;;;;;;;5.03;2.85;;;0.00;85.00;;;;;;5013575;28;20338;-68
2024/01/17 11:32:57;;;;;;;6.70;3.15;;;0.00;85.80;;;;;;5026007;28;20036;-68
2024/01/17 11:35:46;;;;;;;4.72;2.20;;;-3276.70;85.40;;;;;;5021568;28;20022;-68
2024/01/17 11:38:15;;;;;;;4.80;2.58;;;0.00;84.60;;;;;;5020617;28;20034;-68
2024/01/17 11:40:41;;;;;;;8.32;2.63;;;-3276.60;84.10;;;;;;5014705;28;20069;-68
2024/01/17 11:43:08;;;;;;;5.45;2.63;;;-3276.60;84.70;;;;;;5024467;28;20072;-68
2024/01/17 11:45:34;;;;;;;4.53;2.15;;;-3276.70;84.90;;;;;;5030389;28;20124;-68
2024/01/17 11:48:22;;;;;;;5.65;2.88;;;-3276.70;84.80;;;;;;5022647;28;20312;-69
2024/01/17 11:51:10;;;;;;;6.25;2.80;;;-3276.60;83.60;;;;;;5022879;28;20053;-68
2024/01/17 11:53:36;;;;;;;5.75;2.78;;;0.00;84.10;;;;;;5026939;28;20100;-68
2024/01/17 11:56:05;;;;;;;9.00;3.35;;;0.10;84.10;;;;;;5030258;28;20477;-68
2024/01/17 11:58:39;;;;;;;5.05;2.75;;;0.00;82.80;;;;;;5025306;28;20126;-68
2024/01/17 12:01:06;;;;;;;5.63;2.55;;;-3276.70;83.20;;;;;;5025093;28;20438;-68
2024/01/17 12:03:32;;;;;;;4.93;2.67;;;-3276.70;83.60;;;;;;5027358;28;20191;-68
2024/01/17 12:05:59;;;;;;;5.55;2.70;;;0.00;84.20;;;;;;5029379;28;20335;-68
2024/01/17 12:08:25;;;;;;;4.65;2.30;;;-3276.70;84.10;;;;;;5021928;28;20116;-68
2024/01/17 12:10:55;;;;;;;4.90;2.72;;;-3276.60;84.00;;;;;;5024261;28;20041;-68
2024/01/17 12:13:23;;;;;;;3.72;2.13;;;-3276.60;83.90;;;;;;5025278;28;20056;-69